sensor_id;sensor_type;location;lat;lon;timestamp;P1;durP1;ratioP1;P2;durP2;ratioP2
73142;SDS011;61343;53.694;9.988;2022-10-26T00:00:38;12.13;;;5.60;;
73142;SDS011;61343;53.694;9.988;2022-10-26T00:03:03;13.07;;;5.77;;
73142;SDS011;61343;53.694;9.988;2022-10-26T00:05:30;11.03;;;5.83;;
73142;SDS011;61343;53.694;9.988;2022-10-26T00:07:57;11.95;;;6.18;;
73142;SDS011;61343;53.694;9.988;2022-10-26T00:10:22;14.57;;;5.87;;
73142;SDS011;61343;53.694;9.988;2022-10-26T00:12:48;12.37;;;6.27;;
73142;SDS011;61343;53.694;9.988;2022-10-26T00:15:14;12.40;;;6.05;;
73142;SDS011;61343;53.694;9.988;2022-10-26T00:17:40;12.00;;;5.60;;
73142;SDS011;61343;53.694;9.988;2022-10-26T00:20:06;14.07;;;6.30;;
73142;SDS011;61343;53.694;9.988;2022-10-26T00:22:31;12.48;;;6.10;;
73142;SDS011;61343;53.694;9.988;2022-10-26T00:24:56;12.07;;;5.87;;
73142;SDS011;61343;53.694;9.988;2022-10-26T00:27:22;12.53;;;5.97;;
73142;SDS011;61343;53.694;9.988;2022-10-26T00:29:47;10.87;;;5.30;;
73142;SDS011;61343;53.694;9.988;2022-10-26T00:32:12;11.13;;;5.93;;
73142;SDS011;61343;53.694;9.988;2022-10-26T00:34:37;13.40;;;6.10;;
73142;SDS011;61343;53.694;9.988;2022-10-26T00:37:03;13.80;;;6.30;;
73142;SDS011;61343;53.694;9.988;2022-10-26T00:39:28;11.73;;;5.40;;
73142;SDS011;61343;53.694;9.988;2022-10-26T00:41:53;12.97;;;5.60;;
73142;SDS011;61343;53.694;9.988;2022-10-26T00:47:13;13.10;;;6.07;;
73142;SDS011;61343;53.694;9.988;2022-10-26T00:49:42;11.70;;;5.85;;
73142;SDS011;61343;53.694;9.988;2022-10-26T00:52:11;13.93;;;6.65;;
73142;SDS011;61343;53.694;9.988;2022-10-26T00:54:38;16.40;;;5.90;;
73142;SDS011;61343;53.694;9.988;2022-10-26T00:57:04;17.02;;;6.03;;
73142;SDS011;61343;53.694;9.988;2022-10-26T00:59:30;15.60;;;6.38;;
73142;SDS011;61343;53.694;9.988;2022-10-26T01:01:56;11.38;;;5.80;;
73142;SDS011;61343;53.694;9.988;2022-10-26T01:04:22;12.43;;;5.80;;
73142;SDS011;61343;53.694;9.988;2022-10-26T01:06:47;13.10;;;5.67;;
73142;SDS011;61343;53.694;9.988;2022-10-26T01:09:13;12.02;;;5.85;;
73142;SDS011;61343;53.694;9.988;2022-10-26T01:11:40;13.68;;;6.45;;
73142;SDS011;61343;53.694;9.988;2022-10-26T01:14:07;12.53;;;6.07;;
73142;SDS011;61343;53.694;9.988;2022-10-26T01:22:19;11.48;;;5.95;;
73142;SDS011;61343;53.694;9.988;2022-10-26T01:25:32;11.75;;;5.90;;
73142;SDS011;61343;53.694;9.988;2022-10-26T01:27:46;16.63;;;6.20;;
73142;SDS011;61343;53.694;9.988;2022-10-26T01:33:08;12.10;;;6.30;;
73142;SDS011;61343;53.694;9.988;2022-10-26T01:35:56;13.50;;;5.78;;
73142;SDS011;61343;53.694;9.988;2022-10-26T01:41:17;12.02;;;6.07;;
73142;SDS011;61343;53.694;9.988;2022-10-26T01:44:20;11.20;;;5.78;;
73142;SDS011;61343;53.694;9.988;2022-10-26T01:46:44;11.77;;;5.73;;
73142;SDS011;61343;53.694;9.988;2022-10-26T01:49:12;13.77;;;5.70;;
73142;SDS011;61343;53.694;9.988;2022-10-26T01:51:41;11.80;;;5.80;;
73142;SDS011;61343;53.694;9.988;2022-10-26T01:54:08;14.88;;;6.28;;
73142;SDS011;61343;53.694;9.988;2022-10-26T01:56:34;12.97;;;6.07;;
73142;SDS011;61343;53.694;9.988;2022-10-26T01:59:24;11.70;;;5.80;;
73142;SDS011;61343;53.694;9.988;2022-10-26T02:02:00;13.75;;;6.20;;
73142;SDS011;61343;53.694;9.988;2022-10-26T02:04:49;14.52;;;6.53;;
73142;SDS011;61343;53.694;9.988;2022-10-26T02:10:28;12.73;;;5.80;;
73142;SDS011;61343;53.694;9.988;2022-10-26T02:18:51;14.65;;;6.38;;
73142;SDS011;61343;53.694;9.988;2022-10-26T02:21:18;15.50;;;6.53;;
73142;SDS011;61343;53.694;9.988;2022-10-26T02:23:48;13.52;;;6.65;;
73142;SDS011;61343;53.694;9.988;2022-10-26T02:26:17;17.27;;;6.80;;
73142;SDS011;61343;53.694;9.988;2022-10-26T02:28:47;13.05;;;6.88;;
73142;SDS011;61343;53.694;9.988;2022-10-26T02:31:15;15.43;;;6.43;;
73142;SDS011;61343;53.694;9.988;2022-10-26T02:33:44;12.30;;;6.23;;
73142;SDS011;61343;53.694;9.988;2022-10-26T02:36:14;14.35;;;6.88;;
73142;SDS011;61343;53.694;9.988;2022-10-26T02:38:43;13.38;;;6.40;;
73142;SDS011;61343;53.694;9.988;2022-10-26T02:41:11;13.38;;;6.55;;
73142;SDS011;61343;53.694;9.988;2022-10-26T02:43:43;16.45;;;6.80;;
73142;SDS011;61343;53.694;9.988;2022-10-26T02:46:12;12.83;;;6.37;;
73142;SDS011;61343;53.694;9.988;2022-10-26T02:48:41;15.32;;;6.20;;
73142;SDS011;61343;53.694;9.988;2022-10-26T02:53:48;13.15;;;6.63;;
73142;SDS011;61343;53.694;9.988;2022-10-26T02:56:27;12.88;;;6.63;;
73142;SDS011;61343;53.694;9.988;2022-10-26T02:58:58;11.30;;;6.65;;
73142;SDS011;61343;53.694;9.988;2022-10-26T03:01:27;14.48;;;6.85;;
73142;SDS011;61343;53.694;9.988;2022-10-26T03:03:57;12.80;;;6.40;;
73142;SDS011;61343;53.694;9.988;2022-10-26T03:06:23;14.55;;;6.63;;
73142;SDS011;61343;53.694;9.988;2022-10-26T03:08:49;15.48;;;6.85;;
73142;SDS011;61343;53.694;9.988;2022-10-26T03:11:15;11.60;;;6.13;;
73142;SDS011;61343;53.694;9.988;2022-10-26T03:13:41;12.85;;;6.43;;
73142;SDS011;61343;53.694;9.988;2022-10-26T03:16:06;13.27;;;6.00;;
73142;SDS011;61343;53.694;9.988;2022-10-26T03:18:31;14.10;;;7.13;;
73142;SDS011;61343;53.694;9.988;2022-10-26T03:20:56;13.73;;;5.83;;
73142;SDS011;61343;53.694;9.988;2022-10-26T03:23:22;14.77;;;6.57;;
73142;SDS011;61343;53.694;9.988;2022-10-26T03:25:47;11.37;;;6.47;;
73142;SDS011;61343;53.694;9.988;2022-10-26T03:28:12;13.90;;;6.33;;
73142;SDS011;61343;53.694;9.988;2022-10-26T03:30:38;12.97;;;6.37;;
73142;SDS011;61343;53.694;9.988;2022-10-26T03:33:03;14.90;;;7.23;;
73142;SDS011;61343;53.694;9.988;2022-10-26T03:35:28;11.77;;;6.10;;
73142;SDS011;61343;53.694;9.988;2022-10-26T03:37:54;14.37;;;6.17;;
73142;SDS011;61343;53.694;9.988;2022-10-26T03:40:19;15.00;;;6.60;;
73142;SDS011;61343;53.694;9.988;2022-10-26T03:42:44;15.00;;;6.70;;
73142;SDS011;61343;53.694;9.988;2022-10-26T03:45:10;12.33;;;6.07;;
73142;SDS011;61343;53.694;9.988;2022-10-26T03:47:41;13.30;;;6.10;;
73142;SDS011;61343;53.694;9.988;2022-10-26T03:50:07;12.32;;;5.85;;
73142;SDS011;61343;53.694;9.988;2022-10-26T03:52:33;13.73;;;6.20;;
73142;SDS011;61343;53.694;9.988;2022-10-26T03:54:58;14.93;;;6.80;;
73142;SDS011;61343;53.694;9.988;2022-10-26T03:57:23;17.17;;;6.60;;
73142;SDS011;61343;53.694;9.988;2022-10-26T03:59:48;12.60;;;6.00;;
73142;SDS011;61343;53.694;9.988;2022-10-26T04:02:14;10.67;;;5.67;;
73142;SDS011;61343;53.694;9.988;2022-10-26T04:04:39;11.93;;;5.83;;
73142;SDS011;61343;53.694;9.988;2022-10-26T04:07:04;13.73;;;6.07;;
73142;SDS011;61343;53.694;9.988;2022-10-26T04:09:29;11.57;;;6.10;;
73142;SDS011;61343;53.694;9.988;2022-10-26T04:11:55;13.10;;;6.23;;
73142;SDS011;61343;53.694;9.988;2022-10-26T04:14:20;14.43;;;6.37;;
73142;SDS011;61343;53.694;9.988;2022-10-26T04:16:45;13.33;;;6.30;;
73142;SDS011;61343;53.694;9.988;2022-10-26T04:19:11;14.03;;;6.53;;
73142;SDS011;61343;53.694;9.988;2022-10-26T04:21:36;11.87;;;6.17;;
73142;SDS011;61343;53.694;9.988;2022-10-26T04:24:01;12.73;;;6.13;;
73142;SDS011;61343;53.694;9.988;2022-10-26T04:26:27;11.63;;;6.05;;
73142;SDS011;61343;53.694;9.988;2022-10-26T04:28:52;11.47;;;5.70;;
73142;SDS011;61343;53.694;9.988;2022-10-26T04:31:17;10.33;;;5.43;;
73142;SDS011;61343;53.694;9.988;2022-10-26T04:33:43;13.97;;;6.50;;
73142;SDS011;61343;53.694;9.988;2022-10-26T04:36:08;14.57;;;6.43;;
73142;SDS011;61343;53.694;9.988;2022-10-26T04:38:33;14.53;;;6.23;;
73142;SDS011;61343;53.694;9.988;2022-10-26T04:40:58;12.93;;;6.83;;
73142;SDS011;61343;53.694;9.988;2022-10-26T04:43:24;14.20;;;6.70;;
73142;SDS011;61343;53.694;9.988;2022-10-26T04:45:49;13.20;;;6.60;;
73142;SDS011;61343;53.694;9.988;2022-10-26T04:48:18;15.68;;;7.13;;
73142;SDS011;61343;53.694;9.988;2022-10-26T04:50:44;15.63;;;7.60;;
73142;SDS011;61343;53.694;9.988;2022-10-26T04:53:09;15.27;;;7.30;;
73142;SDS011;61343;53.694;9.988;2022-10-26T04:55:34;17.87;;;8.20;;
73142;SDS011;61343;53.694;9.988;2022-10-26T04:58:00;16.60;;;7.57;;
73142;SDS011;61343;53.694;9.988;2022-10-26T05:00:26;15.93;;;8.10;;
73142;SDS011;61343;53.694;9.988;2022-10-26T05:02:51;16.30;;;7.43;;
73142;SDS011;61343;53.694;9.988;2022-10-26T05:05:16;17.65;;;7.20;;
73142;SDS011;61343;53.694;9.988;2022-10-26T05:07:42;16.58;;;7.32;;
73142;SDS011;61343;53.694;9.988;2022-10-26T05:10:08;16.33;;;7.50;;
73142;SDS011;61343;53.694;9.988;2022-10-26T05:12:33;16.90;;;7.97;;
73142;SDS011;61343;53.694;9.988;2022-10-26T05:14:59;16.27;;;7.90;;
73142;SDS011;61343;53.694;9.988;2022-10-26T05:17:24;17.00;;;7.82;;
73142;SDS011;61343;53.694;9.988;2022-10-26T05:19:50;17.63;;;7.53;;
73142;SDS011;61343;53.694;9.988;2022-10-26T05:22:19;14.13;;;7.53;;
73142;SDS011;61343;53.694;9.988;2022-10-26T05:24:45;19.35;;;8.20;;
73142;SDS011;61343;53.694;9.988;2022-10-26T05:27:11;14.63;;;7.10;;
73142;SDS011;61343;53.694;9.988;2022-10-26T05:29:36;14.63;;;7.40;;
73142;SDS011;61343;53.694;9.988;2022-10-26T05:32:01;17.13;;;8.30;;
73142;SDS011;61343;53.694;9.988;2022-10-26T05:34:26;18.67;;;8.10;;
73142;SDS011;61343;53.694;9.988;2022-10-26T05:36:52;19.37;;;8.70;;
73142;SDS011;61343;53.694;9.988;2022-10-26T05:39:18;16.52;;;7.82;;
73142;SDS011;61343;53.694;9.988;2022-10-26T05:41:43;16.70;;;7.77;;
73142;SDS011;61343;53.694;9.988;2022-10-26T05:44:09;19.10;;;8.33;;
73142;SDS011;61343;53.694;9.988;2022-10-26T05:46:34;22.30;;;8.43;;
73142;SDS011;61343;53.694;9.988;2022-10-26T05:48:59;19.27;;;7.80;;
73142;SDS011;61343;53.694;9.988;2022-10-26T05:51:24;23.63;;;10.03;;
73142;SDS011;61343;53.694;9.988;2022-10-26T05:53:50;17.63;;;7.97;;
73142;SDS011;61343;53.694;9.988;2022-10-26T05:56:18;24.45;;;8.70;;
73142;SDS011;61343;53.694;9.988;2022-10-26T05:58:51;21.35;;;8.20;;
73142;SDS011;61343;53.694;9.988;2022-10-26T06:01:26;17.27;;;8.07;;
73142;SDS011;61343;53.694;9.988;2022-10-26T06:06:51;19.65;;;8.65;;
73142;SDS011;61343;53.694;9.988;2022-10-26T06:09:18;19.08;;;8.85;;
73142;SDS011;61343;53.694;9.988;2022-10-26T06:11:44;19.67;;;9.43;;
73142;SDS011;61343;53.694;9.988;2022-10-26T06:14:09;22.20;;;9.77;;
73142;SDS011;61343;53.694;9.988;2022-10-26T06:19:19;22.27;;;9.45;;
73142;SDS011;61343;53.694;9.988;2022-10-26T06:24:43;22.20;;;9.70;;
73142;SDS011;61343;53.694;9.988;2022-10-26T06:32:18;29.08;;;10.18;;
73142;SDS011;61343;53.694;9.988;2022-10-26T06:34:47;24.88;;;10.48;;
73142;SDS011;61343;53.694;9.988;2022-10-26T06:37:14;22.77;;;10.07;;
73142;SDS011;61343;53.694;9.988;2022-10-26T06:39:45;24.85;;;10.65;;
73142;SDS011;61343;53.694;9.988;2022-10-26T06:42:11;21.50;;;8.95;;
73142;SDS011;61343;53.694;9.988;2022-10-26T06:44:37;19.45;;;9.30;;
73142;SDS011;61343;53.694;9.988;2022-10-26T06:47:08;23.57;;;10.00;;
73142;SDS011;61343;53.694;9.988;2022-10-26T06:49:52;26.33;;;12.02;;
73142;SDS011;61343;53.694;9.988;2022-10-26T06:52:36;25.02;;;10.45;;
73142;SDS011;61343;53.694;9.988;2022-10-26T06:55:12;27.13;;;10.45;;
73142;SDS011;61343;53.694;9.988;2022-10-26T06:57:39;27.33;;;11.50;;
73142;SDS011;61343;53.694;9.988;2022-10-26T07:00:13;22.17;;;10.30;;
73142;SDS011;61343;53.694;9.988;2022-10-26T07:02:44;22.90;;;9.75;;
73142;SDS011;61343;53.694;9.988;2022-10-26T07:05:10;21.50;;;9.85;;
73142;SDS011;61343;53.694;9.988;2022-10-26T07:07:39;28.83;;;11.70;;
73142;SDS011;61343;53.694;9.988;2022-10-26T07:10:06;21.50;;;10.45;;
73142;SDS011;61343;53.694;9.988;2022-10-26T07:12:31;21.40;;;10.50;;
73142;SDS011;61343;53.694;9.988;2022-10-26T07:14:57;24.77;;;10.77;;
73142;SDS011;61343;53.694;9.988;2022-10-26T07:17:22;24.20;;;10.90;;
73142;SDS011;61343;53.694;9.988;2022-10-26T07:19:48;25.58;;;11.20;;
73142;SDS011;61343;53.694;9.988;2022-10-26T07:22:13;22.10;;;9.90;;
73142;SDS011;61343;53.694;9.988;2022-10-26T07:24:38;20.67;;;10.07;;
73142;SDS011;61343;53.694;9.988;2022-10-26T07:27:04;28.10;;;12.03;;
73142;SDS011;61343;53.694;9.988;2022-10-26T07:29:29;24.80;;;11.53;;
73142;SDS011;61343;53.694;9.988;2022-10-26T07:31:54;26.53;;;11.73;;
73142;SDS011;61343;53.694;9.988;2022-10-26T07:34:19;24.67;;;10.53;;
73142;SDS011;61343;53.694;9.988;2022-10-26T07:36:45;26.38;;;11.55;;
73142;SDS011;61343;53.694;9.988;2022-10-26T07:39:10;27.67;;;11.87;;
73142;SDS011;61343;53.694;9.988;2022-10-26T07:41:35;25.27;;;10.73;;
73142;SDS011;61343;53.694;9.988;2022-10-26T07:44:01;25.50;;;11.77;;
73142;SDS011;61343;53.694;9.988;2022-10-26T07:46:26;25.17;;;11.47;;
73142;SDS011;61343;53.694;9.988;2022-10-26T07:48:51;28.17;;;10.97;;
73142;SDS011;61343;53.694;9.988;2022-10-26T07:51:17;24.83;;;10.80;;
73142;SDS011;61343;53.694;9.988;2022-10-26T07:53:42;23.40;;;10.87;;
73142;SDS011;61343;53.694;9.988;2022-10-26T07:56:08;29.07;;;11.60;;
73142;SDS011;61343;53.694;9.988;2022-10-26T07:58:34;22.92;;;10.93;;
73142;SDS011;61343;53.694;9.988;2022-10-26T08:01:07;22.63;;;11.33;;
73142;SDS011;61343;53.694;9.988;2022-10-26T08:03:35;26.55;;;12.65;;
73142;SDS011;61343;53.694;9.988;2022-10-26T08:06:00;25.17;;;10.75;;
73142;SDS011;61343;53.694;9.988;2022-10-26T08:08:28;23.70;;;10.52;;
73142;SDS011;61343;53.694;9.988;2022-10-26T08:10:53;19.30;;;10.57;;
73142;SDS011;61343;53.694;9.988;2022-10-26T08:13:18;23.03;;;10.27;;
73142;SDS011;61343;53.694;9.988;2022-10-26T08:15:43;21.97;;;9.73;;
73142;SDS011;61343;53.694;9.988;2022-10-26T08:18:09;19.93;;;10.00;;
73142;SDS011;61343;53.694;9.988;2022-10-26T08:20:34;21.77;;;9.40;;
73142;SDS011;61343;53.694;9.988;2022-10-26T08:23:00;21.97;;;10.43;;
73142;SDS011;61343;53.694;9.988;2022-10-26T08:25:25;23.55;;;10.45;;
73142;SDS011;61343;53.694;9.988;2022-10-26T08:27:51;20.77;;;11.13;;
73142;SDS011;61343;53.694;9.988;2022-10-26T08:30:17;21.60;;;9.77;;
73142;SDS011;61343;53.694;9.988;2022-10-26T08:32:42;20.37;;;10.20;;
73142;SDS011;61343;53.694;9.988;2022-10-26T08:35:08;18.25;;;9.13;;
73142;SDS011;61343;53.694;9.988;2022-10-26T08:37:34;22.87;;;10.23;;
73142;SDS011;61343;53.694;9.988;2022-10-26T08:40:00;20.48;;;10.00;;
73142;SDS011;61343;53.694;9.988;2022-10-26T08:42:29;22.42;;;10.20;;
73142;SDS011;61343;53.694;9.988;2022-10-26T08:45:46;24.40;;;10.45;;
73142;SDS011;61343;53.694;9.988;2022-10-26T08:47:54;21.43;;;10.40;;
73142;SDS011;61343;53.694;9.988;2022-10-26T08:50:34;18.33;;;9.52;;
73142;SDS011;61343;53.694;9.988;2022-10-26T08:53:07;25.65;;;10.13;;
73142;SDS011;61343;53.694;9.988;2022-10-26T08:55:42;28.98;;;13.48;;
73142;SDS011;61343;53.694;9.988;2022-10-26T08:58:14;23.08;;;9.90;;
73142;SDS011;61343;53.694;9.988;2022-10-26T09:00:42;19.30;;;9.93;;
73142;SDS011;61343;53.694;9.988;2022-10-26T09:03:14;23.00;;;9.77;;
73142;SDS011;61343;53.694;9.988;2022-10-26T09:08:25;18.33;;;9.27;;
73142;SDS011;61343;53.694;9.988;2022-10-26T09:13:27;21.55;;;9.70;;
73142;SDS011;61343;53.694;9.988;2022-10-26T09:16:05;20.07;;;10.47;;
73142;SDS011;61343;53.694;9.988;2022-10-26T09:18:37;27.88;;;9.48;;
73142;SDS011;61343;53.694;9.988;2022-10-26T09:23:56;20.05;;;8.07;;
73142;SDS011;61343;53.694;9.988;2022-10-26T09:26:51;23.30;;;12.85;;
73142;SDS011;61343;53.694;9.988;2022-10-26T09:29:37;22.37;;;12.63;;
73142;SDS011;61343;53.694;9.988;2022-10-26T09:32:05;26.25;;;13.95;;
73142;SDS011;61343;53.694;9.988;2022-10-26T09:34:42;21.98;;;12.00;;
73142;SDS011;61343;53.694;9.988;2022-10-26T09:37:14;15.50;;;7.30;;
73142;SDS011;61343;53.694;9.988;2022-10-26T09:39:46;26.48;;;16.27;;
73142;SDS011;61343;53.694;9.988;2022-10-26T09:42:39;12.87;;;6.50;;
73142;SDS011;61343;53.694;9.988;2022-10-26T09:50:38;18.53;;;9.70;;
73142;SDS011;61343;53.694;9.988;2022-10-26T09:53:08;15.73;;;7.05;;
73142;SDS011;61343;53.694;9.988;2022-10-26T09:55:33;14.97;;;6.50;;
73142;SDS011;61343;53.694;9.988;2022-10-26T09:58:05;15.95;;;11.13;;
73142;SDS011;61343;53.694;9.988;2022-10-26T10:00:35;14.68;;;6.30;;
73142;SDS011;61343;53.694;9.988;2022-10-26T10:03:02;12.77;;;7.50;;
73142;SDS011;61343;53.694;9.988;2022-10-26T10:05:45;14.90;;;8.13;;
73142;SDS011;61343;53.694;9.988;2022-10-26T10:08:13;15.77;;;7.60;;
73142;SDS011;61343;53.694;9.988;2022-10-26T10:13:21;14.68;;;6.75;;
73142;SDS011;61343;53.694;9.988;2022-10-26T10:15:52;14.20;;;7.38;;
73142;SDS011;61343;53.694;9.988;2022-10-26T10:18:22;9.50;;;5.22;;
73142;SDS011;61343;53.694;9.988;2022-10-26T10:20:52;11.38;;;6.25;;
73142;SDS011;61343;53.694;9.988;2022-10-26T10:23:23;16.30;;;10.63;;
73142;SDS011;61343;53.694;9.988;2022-10-26T10:25:49;11.95;;;7.13;;
73142;SDS011;61343;53.694;9.988;2022-10-26T10:28:24;9.88;;;5.82;;
73142;SDS011;61343;53.694;9.988;2022-10-26T10:30:51;10.40;;;4.43;;
73142;SDS011;61343;53.694;9.988;2022-10-26T10:33:18;10.23;;;4.93;;
73142;SDS011;61343;53.694;9.988;2022-10-26T10:35:47;10.33;;;5.00;;
73142;SDS011;61343;53.694;9.988;2022-10-26T10:38:16;13.10;;;4.63;;
73142;SDS011;61343;53.694;9.988;2022-10-26T10:40:48;9.13;;;4.80;;
73142;SDS011;61343;53.694;9.988;2022-10-26T10:43:15;12.80;;;5.65;;
73142;SDS011;61343;53.694;9.988;2022-10-26T10:45:41;10.23;;;4.63;;
73142;SDS011;61343;53.694;9.988;2022-10-26T10:48:15;12.35;;;6.40;;
73142;SDS011;61343;53.694;9.988;2022-10-26T10:50:57;9.20;;;3.80;;
73142;SDS011;61343;53.694;9.988;2022-10-26T10:53:28;8.73;;;3.50;;
73142;SDS011;61343;53.694;9.988;2022-10-26T10:58:26;8.98;;;3.70;;
73142;SDS011;61343;53.694;9.988;2022-10-26T11:00:59;11.60;;;4.18;;
73142;SDS011;61343;53.694;9.988;2022-10-26T11:06:20;8.50;;;3.83;;
73142;SDS011;61343;53.694;9.988;2022-10-26T11:08:49;7.97;;;3.85;;
73142;SDS011;61343;53.694;9.988;2022-10-26T11:11:22;9.73;;;4.33;;
73142;SDS011;61343;53.694;9.988;2022-10-26T11:14:01;8.43;;;3.90;;
73142;SDS011;61343;53.694;9.988;2022-10-26T11:16:38;9.23;;;3.42;;
73142;SDS011;61343;53.694;9.988;2022-10-26T11:21:54;9.10;;;3.70;;
73142;SDS011;61343;53.694;9.988;2022-10-26T11:24:27;12.27;;;4.00;;
73142;SDS011;61343;53.694;9.988;2022-10-26T11:32:24;6.72;;;3.45;;
73142;SDS011;61343;53.694;9.988;2022-10-26T11:34:59;10.75;;;3.55;;
73142;SDS011;61343;53.694;9.988;2022-10-26T11:37:34;8.60;;;3.40;;
73142;SDS011;61343;53.694;9.988;2022-10-26T11:40:29;11.32;;;3.55;;
73142;SDS011;61343;53.694;9.988;2022-10-26T11:43:20;9.15;;;3.42;;
73142;SDS011;61343;53.694;9.988;2022-10-26T11:45:56;8.05;;;3.15;;
73142;SDS011;61343;53.694;9.988;2022-10-26T11:48:35;9.48;;;3.38;;
73142;SDS011;61343;53.694;9.988;2022-10-26T11:51:06;8.73;;;3.33;;
73142;SDS011;61343;53.694;9.988;2022-10-26T11:53:44;11.57;;;3.40;;
73142;SDS011;61343;53.694;9.988;2022-10-26T11:56:31;11.25;;;3.30;;
73142;SDS011;61343;53.694;9.988;2022-10-26T11:59:01;8.43;;;3.50;;
73142;SDS011;61343;53.694;9.988;2022-10-26T12:01:28;7.82;;;3.50;;
73142;SDS011;61343;53.694;9.988;2022-10-26T12:03:54;8.90;;;3.70;;
73142;SDS011;61343;53.694;9.988;2022-10-26T12:06:24;10.68;;;3.67;;
73142;SDS011;61343;53.694;9.988;2022-10-26T12:08:59;9.75;;;3.80;;
73142;SDS011;61343;53.694;9.988;2022-10-26T12:11:33;6.63;;;3.17;;
73142;SDS011;61343;53.694;9.988;2022-10-26T12:19:44;10.00;;;3.50;;
73142;SDS011;61343;53.694;9.988;2022-10-26T12:22:15;8.75;;;3.60;;
73142;SDS011;61343;53.694;9.988;2022-10-26T12:24:43;7.85;;;3.63;;
73142;SDS011;61343;53.694;9.988;2022-10-26T12:27:29;9.40;;;3.80;;
73142;SDS011;61343;53.694;9.988;2022-10-26T12:40:47;8.57;;;3.58;;
73142;SDS011;61343;53.694;9.988;2022-10-26T12:43:35;11.53;;;4.07;;
73142;SDS011;61343;53.694;9.988;2022-10-26T12:54:30;9.18;;;3.13;;
73142;SDS011;61343;53.694;9.988;2022-10-26T12:56:49;10.33;;;3.50;;
73142;SDS011;61343;53.694;9.988;2022-10-26T13:07:43;11.23;;;3.57;;
73142;SDS011;61343;53.694;9.988;2022-10-26T13:15:17;8.30;;;3.10;;
73142;SDS011;61343;53.694;9.988;2022-10-26T13:18:06;8.25;;;3.05;;
73142;SDS011;61343;53.694;9.988;2022-10-26T13:20:34;9.40;;;3.70;;
73142;SDS011;61343;53.694;9.988;2022-10-26T13:23:01;9.07;;;2.92;;
73142;SDS011;61343;53.694;9.988;2022-10-26T13:25:40;7.15;;;2.90;;
73142;SDS011;61343;53.694;9.988;2022-10-26T13:28:08;8.13;;;2.80;;
73142;SDS011;61343;53.694;9.988;2022-10-26T13:30:55;9.45;;;2.83;;
73142;SDS011;61343;53.694;9.988;2022-10-26T13:33:21;8.10;;;2.90;;
73142;SDS011;61343;53.694;9.988;2022-10-26T13:35:50;11.30;;;3.40;;
73142;SDS011;61343;53.694;9.988;2022-10-26T13:38:19;6.38;;;2.83;;
73142;SDS011;61343;53.694;9.988;2022-10-26T13:40:48;8.10;;;3.35;;
73142;SDS011;61343;53.694;9.988;2022-10-26T13:43:17;6.82;;;3.20;;
73142;SDS011;61343;53.694;9.988;2022-10-26T13:45:52;7.60;;;3.08;;
73142;SDS011;61343;53.694;9.988;2022-10-26T13:48:22;7.60;;;2.83;;
73142;SDS011;61343;53.694;9.988;2022-10-26T13:51:22;7.43;;;2.70;;
73142;SDS011;61343;53.694;9.988;2022-10-26T13:53:52;7.47;;;2.92;;
73142;SDS011;61343;53.694;9.988;2022-10-26T13:56:24;8.43;;;2.90;;
73142;SDS011;61343;53.694;9.988;2022-10-26T13:59:02;5.68;;;2.53;;
73142;SDS011;61343;53.694;9.988;2022-10-26T14:01:30;7.70;;;2.80;;
73142;SDS011;61343;53.694;9.988;2022-10-26T14:03:56;8.82;;;2.80;;
73142;SDS011;61343;53.694;9.988;2022-10-26T14:06:23;8.65;;;2.42;;
73142;SDS011;61343;53.694;9.988;2022-10-26T14:08:50;6.47;;;2.50;;
73142;SDS011;61343;53.694;9.988;2022-10-26T14:11:19;8.38;;;2.50;;
73142;SDS011;61343;53.694;9.988;2022-10-26T14:13:48;7.57;;;2.70;;
73142;SDS011;61343;53.694;9.988;2022-10-26T14:16:15;8.70;;;3.20;;
73142;SDS011;61343;53.694;9.988;2022-10-26T14:18:44;8.10;;;2.83;;
73142;SDS011;61343;53.694;9.988;2022-10-26T14:21:12;6.97;;;2.60;;
73142;SDS011;61343;53.694;9.988;2022-10-26T14:24:01;6.80;;;3.00;;
73142;SDS011;61343;53.694;9.988;2022-10-26T14:26:38;7.88;;;2.72;;
73142;SDS011;61343;53.694;9.988;2022-10-26T14:29:18;10.70;;;2.78;;
73142;SDS011;61343;53.694;9.988;2022-10-26T14:31:45;6.97;;;2.72;;
73142;SDS011;61343;53.694;9.988;2022-10-26T14:34:11;8.13;;;2.77;;
73142;SDS011;61343;53.694;9.988;2022-10-26T14:36:39;6.22;;;2.60;;
73142;SDS011;61343;53.694;9.988;2022-10-26T14:42:12;11.13;;;2.70;;
73142;SDS011;61343;53.694;9.988;2022-10-26T14:44:48;10.77;;;2.70;;
73142;SDS011;61343;53.694;9.988;2022-10-26T14:47:24;7.53;;;2.83;;
73142;SDS011;61343;53.694;9.988;2022-10-26T14:49:52;6.47;;;2.87;;
73142;SDS011;61343;53.694;9.988;2022-10-26T14:52:28;10.02;;;2.85;;
73142;SDS011;61343;53.694;9.988;2022-10-26T14:54:59;5.72;;;2.67;;
73142;SDS011;61343;53.694;9.988;2022-10-26T14:57:33;6.72;;;2.72;;
73142;SDS011;61343;53.694;9.988;2022-10-26T15:00:03;6.93;;;2.83;;
73142;SDS011;61343;53.694;9.988;2022-10-26T15:02:35;8.60;;;2.70;;
73142;SDS011;61343;53.694;9.988;2022-10-26T15:05:01;8.48;;;2.90;;
73142;SDS011;61343;53.694;9.988;2022-10-26T15:07:40;7.27;;;3.00;;
73142;SDS011;61343;53.694;9.988;2022-10-26T15:10:52;8.05;;;3.10;;
73142;SDS011;61343;53.694;9.988;2022-10-26T15:16:09;10.85;;;3.17;;
73142;SDS011;61343;53.694;9.988;2022-10-26T15:18:41;9.45;;;3.10;;
73142;SDS011;61343;53.694;9.988;2022-10-26T15:23:51;11.65;;;2.80;;
73142;SDS011;61343;53.694;9.988;2022-10-26T15:26:18;6.93;;;3.33;;
73142;SDS011;61343;53.694;9.988;2022-10-26T15:28:44;7.85;;;2.83;;
73142;SDS011;61343;53.694;9.988;2022-10-26T15:34:21;11.27;;;2.93;;
73142;SDS011;61343;53.694;9.988;2022-10-26T15:36:26;9.43;;;3.10;;
73142;SDS011;61343;53.694;9.988;2022-10-26T15:38:54;6.03;;;2.70;;
73142;SDS011;61343;53.694;9.988;2022-10-26T15:41:24;9.70;;;2.67;;
73142;SDS011;61343;53.694;9.988;2022-10-26T15:43:55;7.75;;;3.10;;
73142;SDS011;61343;53.694;9.988;2022-10-26T15:46:23;8.15;;;2.70;;
73142;SDS011;61343;53.694;9.988;2022-10-26T15:48:59;8.50;;;3.00;;
73142;SDS011;61343;53.694;9.988;2022-10-26T15:51:26;10.73;;;3.00;;
73142;SDS011;61343;53.694;9.988;2022-10-26T15:53:58;9.40;;;2.78;;
73142;SDS011;61343;53.694;9.988;2022-10-26T15:56:26;9.68;;;2.60;;
73142;SDS011;61343;53.694;9.988;2022-10-26T15:58:52;8.60;;;2.90;;
73142;SDS011;61343;53.694;9.988;2022-10-26T16:01:20;8.40;;;3.00;;
73142;SDS011;61343;53.694;9.988;2022-10-26T16:03:47;7.97;;;2.67;;
73142;SDS011;61343;53.694;9.988;2022-10-26T16:06:17;7.03;;;3.03;;
73142;SDS011;61343;53.694;9.988;2022-10-26T16:08:49;10.20;;;3.13;;
73142;SDS011;61343;53.694;9.988;2022-10-26T16:11:16;9.27;;;3.30;;
73142;SDS011;61343;53.694;9.988;2022-10-26T16:13:41;8.30;;;2.93;;
73142;SDS011;61343;53.694;9.988;2022-10-26T16:16:13;8.87;;;2.90;;
73142;SDS011;61343;53.694;9.988;2022-10-26T16:18:40;7.38;;;3.20;;
73142;SDS011;61343;53.694;9.988;2022-10-26T16:21:05;7.13;;;3.00;;
73142;SDS011;61343;53.694;9.988;2022-10-26T16:23:35;7.30;;;3.10;;
73142;SDS011;61343;53.694;9.988;2022-10-26T16:26:02;8.53;;;2.90;;
73142;SDS011;61343;53.694;9.988;2022-10-26T16:28:28;7.40;;;2.80;;
73142;SDS011;61343;53.694;9.988;2022-10-26T16:31:03;7.30;;;2.90;;
73142;SDS011;61343;53.694;9.988;2022-10-26T16:33:30;8.55;;;2.95;;
73142;SDS011;61343;53.694;9.988;2022-10-26T16:35:57;7.28;;;2.67;;
73142;SDS011;61343;53.694;9.988;2022-10-26T16:38:23;8.48;;;3.10;;
73142;SDS011;61343;53.694;9.988;2022-10-26T16:40:50;9.50;;;2.75;;
73142;SDS011;61343;53.694;9.988;2022-10-26T16:43:24;6.10;;;2.60;;
73142;SDS011;61343;53.694;9.988;2022-10-26T16:45:49;6.67;;;2.67;;
73142;SDS011;61343;53.694;9.988;2022-10-26T16:48:15;8.32;;;3.13;;